createdAt,value
2018-09-26T00:02:32.356Z,8.70
2018-09-26T00:05:06.558Z,8.70
2018-09-26T00:07:40.646Z,8.60
2018-09-26T00:10:14.621Z,8.60
2018-09-26T00:12:49.479Z,8.30
2018-09-26T00:15:23.523Z,8.30
2018-09-26T00:17:57.576Z,8.20
2018-09-26T00:20:31.573Z,8.30
2018-09-26T00:23:06.319Z,8.00
2018-09-26T00:25:40.364Z,8.00
2018-09-26T00:28:14.530Z,8.10
2018-09-26T00:30:48.671Z,8.40
2018-09-26T00:33:22.942Z,8.40
2018-09-26T00:35:56.946Z,8.60
2018-09-26T00:38:31.038Z,8.50
2018-09-26T00:41:05.286Z,8.20
2018-09-26T00:43:39.314Z,8.10
2018-09-26T00:46:13.438Z,8.00
2018-09-26T00:48:47.461Z,8.00
2018-09-26T00:51:21.557Z,8.10
2018-09-26T00:53:55.641Z,8.00
2018-09-26T00:56:29.778Z,8.10
2018-09-26T00:59:04.526Z,7.90
2018-09-26T01:01:38.671Z,7.90
2018-09-26T01:04:13.548Z,7.70
2018-09-26T01:06:47.653Z,7.70
2018-09-26T01:09:21.666Z,7.70
2018-09-26T01:11:55.697Z,7.80
2018-09-26T01:14:29.793Z,7.80
2018-09-26T01:17:04.482Z,7.60
2018-09-26T01:19:38.598Z,7.60
2018-09-26T01:22:12.741Z,7.60
2018-09-26T01:24:46.889Z,7.80
2018-09-26T01:27:20.786Z,7.90
2018-09-26T01:29:54.921Z,7.80
2018-09-26T01:32:28.837Z,8.00
2018-09-26T01:35:02.854Z,7.90
2018-09-26T01:37:36.978Z,7.90
2018-09-26T01:40:11.867Z,7.90
2018-09-26T01:42:45.899Z,7.90
2018-09-26T01:45:19.888Z,8.00
2018-09-26T01:47:53.900Z,7.90
2018-09-26T01:50:27.998Z,7.80
2018-09-26T01:53:02.115Z,7.60
2018-09-26T01:55:36.179Z,7.40
2018-09-26T01:58:10.238Z,7.10
2018-09-26T02:00:44.346Z,7.10
2018-09-26T02:03:18.431Z,7.00
2018-09-26T02:05:52.502Z,7.00
2018-09-26T02:08:26.547Z,7.00
2018-09-26T02:11:00.706Z,6.90
2018-09-26T02:13:34.786Z,7.00
2018-09-26T02:16:09.716Z,7.10
2018-09-26T02:18:43.763Z,7.10
2018-09-26T02:21:18.606Z,7.00
2018-09-26T02:23:52.534Z,6.90
2018-09-26T02:26:28.552Z,6.90
2018-09-26T02:29:04.649Z,6.90
2018-09-26T02:31:38.853Z,7.00
2018-09-26T02:34:12.775Z,7.00
2018-09-26T02:36:46.854Z,6.90
2018-09-26T02:39:21.005Z,6.90
2018-09-26T02:41:55.095Z,6.80
2018-09-26T02:44:29.255Z,6.70
2018-09-26T02:47:04.071Z,6.60
2018-09-26T02:49:38.145Z,6.60
2018-09-26T02:52:33.793Z,6.60
2018-09-26T02:55:07.714Z,7.00
2018-09-26T03:00:22.400Z,6.90
2018-09-26T03:02:57.125Z,7.00
2018-09-26T03:05:31.096Z,7.00
2018-09-26T03:08:05.148Z,6.90
2018-09-26T03:10:39.981Z,7.00
2018-09-26T03:13:13.913Z,7.00
2018-09-26T03:15:48.002Z,7.10
2018-09-26T03:18:22.838Z,7.20
2018-09-26T03:20:56.962Z,7.20
2018-09-26T03:23:31.007Z,7.30
2018-09-26T03:26:05.757Z,6.80
2018-09-26T03:28:39.918Z,6.80
2018-09-26T03:31:14.570Z,6.70
2018-09-26T03:33:48.703Z,6.70
2018-09-26T03:36:22.729Z,6.60
2018-09-26T03:38:57.542Z,6.60
2018-09-26T03:41:31.623Z,6.60
2018-09-26T03:44:05.694Z,6.70
2018-09-26T03:46:39.646Z,6.70
2018-09-26T03:49:13.852Z,6.60
2018-09-26T03:51:47.955Z,6.90
2018-09-26T03:54:22.818Z,6.80
2018-09-26T03:56:56.949Z,6.80
2018-09-26T03:59:31.064Z,6.80
2018-09-26T04:02:05.052Z,6.60
2018-09-26T04:04:39.148Z,6.40
2018-09-26T04:07:13.268Z,6.30
2018-09-26T04:09:47.368Z,6.30
2018-09-26T04:12:21.440Z,6.20
2018-09-26T04:14:55.597Z,6.20
2018-09-26T04:17:29.705Z,6.10
2018-09-26T04:20:03.624Z,6.10
2018-09-26T04:22:37.665Z,6.10
2018-09-26T04:25:11.644Z,6.20
2018-09-26T04:27:46.591Z,6.20
2018-09-26T04:30:20.608Z,6.20
2018-09-26T04:32:54.921Z,6.30
2018-09-26T04:35:28.965Z,6.20
2018-09-26T04:38:02.933Z,6.40
2018-09-26T04:40:37.002Z,6.40
2018-09-26T04:43:11.131Z,6.50
2018-09-26T04:45:45.187Z,6.50
2018-09-26T04:48:19.275Z,6.50
2018-09-26T04:50:53.460Z,6.40
2018-09-26T04:53:27.528Z,6.40
2018-09-26T04:56:01.675Z,6.40
2018-09-26T04:58:35.797Z,6.50
2018-09-26T05:01:09.878Z,6.40
2018-09-26T05:03:43.859Z,6.40
2018-09-26T05:06:17.981Z,6.30
2018-09-26T05:08:52.172Z,6.30
2018-09-26T05:11:26.219Z,6.40
2018-09-26T05:14:00.218Z,6.40
2018-09-26T05:16:35.055Z,6.30
2018-09-26T05:19:09.103Z,6.30
2018-09-26T05:21:42.987Z,6.40
2018-09-26T05:24:17.022Z,6.30
2018-09-26T05:26:51.202Z,6.30
2018-09-26T05:29:25.222Z,6.40
2018-09-26T05:31:59.306Z,6.50
2018-09-26T05:34:33.337Z,6.70
2018-09-26T05:37:07.374Z,6.80
2018-09-26T05:39:42.030Z,6.80
2018-09-26T05:42:16.052Z,6.90
2018-09-26T05:44:50.252Z,7.10
2018-09-26T05:47:24.352Z,7.00
2018-09-26T05:49:58.403Z,7.10
2018-09-26T05:52:32.421Z,7.10
2018-09-26T05:55:07.904Z,7.20
2018-09-26T05:57:42.006Z,7.20
2018-09-26T06:00:16.010Z,7.20
2018-09-26T06:02:50.858Z,7.20
2018-09-26T06:05:25.030Z,7.20
2018-09-26T06:07:58.964Z,7.20
2018-09-26T06:10:32.845Z,7.30
2018-09-26T06:13:06.975Z,7.40
2018-09-26T06:15:41.066Z,7.50
2018-09-26T06:18:15.107Z,7.60
2018-09-26T06:20:49.035Z,7.70
2018-09-26T06:23:23.030Z,7.70
2018-09-26T06:25:57.155Z,7.70
2018-09-26T06:28:31.302Z,7.90
2018-09-26T06:31:05.334Z,7.90
2018-09-26T06:33:40.278Z,8.10
2018-09-26T06:36:14.319Z,8.10
2018-09-26T06:38:48.332Z,8.20
2018-09-26T06:41:23.078Z,8.30
2018-09-26T06:43:57.929Z,8.40
2018-09-26T06:46:32.116Z,8.40
2018-09-26T06:49:06.219Z,8.70
2018-09-26T06:51:40.386Z,9.10
2018-09-26T06:54:15.345Z,9.20
2018-09-26T06:56:49.882Z,9.50
2018-09-26T06:59:23.865Z,9.70
2018-09-26T07:01:57.978Z,9.90
2018-09-26T07:04:32.100Z,10.10
2018-09-26T07:07:06.244Z,10.00
2018-09-26T07:09:40.255Z,10.10
2018-09-26T07:12:14.266Z,10.10
2018-09-26T07:14:48.333Z,10.60
2018-09-26T07:17:23.220Z,11.00
2018-09-26T07:19:57.232Z,11.00
2018-09-26T07:22:31.338Z,11.00
2018-09-26T07:25:12.958Z,10.90
2018-09-26T07:27:47.039Z,10.90
2018-09-26T07:30:21.058Z,11.00
2018-09-26T07:32:55.171Z,10.90
2018-09-26T07:35:29.206Z,10.90
2018-09-26T07:38:03.318Z,11.00
2018-09-26T07:40:37.293Z,11.10
2018-09-26T07:43:11.430Z,11.20
2018-09-26T07:45:45.416Z,11.10
2018-09-26T07:48:19.380Z,11.30
2018-09-26T07:50:53.420Z,11.40
2018-09-26T07:53:27.485Z,11.60
2018-09-26T07:56:01.591Z,11.60
2018-09-26T07:58:35.703Z,11.70
2018-09-26T08:01:09.765Z,11.80
2018-09-26T08:03:43.822Z,11.90
2018-09-26T08:06:17.942Z,12.10
2018-09-26T08:08:52.014Z,12.30
2018-09-26T08:11:26.210Z,12.50
2018-09-26T08:14:00.304Z,12.60
2018-09-26T08:16:35.229Z,12.90
2018-09-26T08:19:09.346Z,12.90
2018-09-26T08:21:43.445Z,13.10
2018-09-26T08:24:17.594Z,13.20
2018-09-26T08:26:51.818Z,13.20
2018-09-26T08:29:25.961Z,13.00
2018-09-26T08:32:00.823Z,13.10
2018-09-26T08:34:34.936Z,13.10
2018-09-26T08:37:09.001Z,13.40
2018-09-26T08:39:42.961Z,13.40
2018-09-26T08:42:16.921Z,13.60
2018-09-26T08:44:51.076Z,13.60
2018-09-26T08:47:25.033Z,13.40
2018-09-26T08:49:59.865Z,13.70
2018-09-26T08:52:33.873Z,13.70
2018-09-26T08:55:07.998Z,13.80
2018-09-26T08:57:42.074Z,13.60
2018-09-26T09:00:16.298Z,13.80
2018-09-26T09:02:50.365Z,13.50
2018-09-26T09:05:24.466Z,13.60
2018-09-26T09:07:58.598Z,13.70
2018-09-26T09:10:32.636Z,13.70
2018-09-26T09:13:07.440Z,13.50
2018-09-26T09:15:41.520Z,13.50
2018-09-26T09:18:16.410Z,13.70
2018-09-26T09:20:50.413Z,13.70
2018-09-26T09:23:24.511Z,13.90
2018-09-26T09:25:58.600Z,13.60
2018-09-26T09:28:32.606Z,13.80
2018-09-26T09:31:06.641Z,13.80
2018-09-26T09:33:41.506Z,13.90
2018-09-26T09:36:16.325Z,14.00
2018-09-26T09:38:50.250Z,14.00
2018-09-26T09:41:24.293Z,14.00
2018-09-26T09:43:58.472Z,14.00
2018-09-26T09:46:32.557Z,14.10
2018-09-26T09:49:06.689Z,14.00
2018-09-26T09:51:40.793Z,14.20
2018-09-26T09:54:14.919Z,14.50
2018-09-26T09:56:48.942Z,14.50
2018-09-26T09:59:22.914Z,14.60
2018-09-26T10:01:57.001Z,14.50
2018-09-26T10:04:31.768Z,15.10
2018-09-26T10:07:05.856Z,15.10
2018-09-26T10:09:40.701Z,15.40
2018-09-26T10:12:14.817Z,15.30
2018-09-26T10:14:48.969Z,15.30
2018-09-26T10:17:23.157Z,15.40
2018-09-26T10:19:57.107Z,15.40
2018-09-26T10:22:31.781Z,15.80
2018-09-26T10:25:07.023Z,15.80
2018-09-26T10:27:41.004Z,15.70
2018-09-26T10:30:15.053Z,15.70
2018-09-26T10:32:49.767Z,15.70
2018-09-26T10:35:23.850Z,15.70
2018-09-26T10:37:57.862Z,15.50
2018-09-26T10:40:32.650Z,15.60
2018-09-26T10:43:06.765Z,15.60
2018-09-26T10:45:40.788Z,15.60
2018-09-26T10:48:14.717Z,15.80
2018-09-26T10:50:48.630Z,15.90
2018-09-26T10:53:22.746Z,16.00
2018-09-26T10:55:56.849Z,16.10
2018-09-26T10:58:30.875Z,16.40
2018-09-26T11:01:04.889Z,16.40
2018-09-26T11:03:39.526Z,16.60
2018-09-26T11:06:13.574Z,16.50
2018-09-26T11:08:47.524Z,16.80
2018-09-26T11:11:21.636Z,16.80
2018-09-26T11:13:55.557Z,16.70
2018-09-26T11:16:30.416Z,17.10
2018-09-26T11:19:04.491Z,17.00
2018-09-26T11:21:38.582Z,17.00
2018-09-26T11:24:12.801Z,17.40
2018-09-26T11:26:46.894Z,17.30
2018-09-26T11:29:21.090Z,17.50
2018-09-26T11:31:55.872Z,17.30
2018-09-26T11:34:30.647Z,17.70
2018-09-26T11:37:04.645Z,17.70
2018-09-26T11:39:38.777Z,17.80
2018-09-26T11:42:12.887Z,17.60
2018-09-26T11:44:47.704Z,18.10
2018-09-26T11:47:21.782Z,18.10
2018-09-26T11:49:55.889Z,18.40
2018-09-26T11:52:30.043Z,17.70
2018-09-26T11:55:04.955Z,17.90
2018-09-26T11:57:39.356Z,17.90
2018-09-26T12:00:13.426Z,18.00
2018-09-26T12:02:47.386Z,17.70
2018-09-26T12:05:46.350Z,17.60
2018-09-26T12:08:20.534Z,18.30
2018-09-26T12:10:54.571Z,18.20
2018-09-26T12:13:28.686Z,18.00
2018-09-26T12:16:02.676Z,18.20
2018-09-26T12:18:36.906Z,18.60
2018-09-26T12:21:11.606Z,18.30
2018-09-26T12:23:45.735Z,18.30
2018-09-26T12:26:19.843Z,18.70
2018-09-26T12:28:53.865Z,19.20
2018-09-26T12:31:27.969Z,19.20
2018-09-26T12:34:02.114Z,19.00
2018-09-26T12:36:36.091Z,19.40
2018-09-26T12:39:10.216Z,19.40
2018-09-26T12:41:44.146Z,19.40
2018-09-26T12:44:18.201Z,19.10
2018-09-26T12:46:52.257Z,19.40
2018-09-26T12:49:26.374Z,19.80
2018-09-26T12:52:00.467Z,19.30
2018-09-26T12:54:35.410Z,19.20
2018-09-26T12:57:09.522Z,19.20
2018-09-26T12:59:44.457Z,19.80
2018-09-26T13:02:18.468Z,19.70
2018-09-26T13:04:52.534Z,19.50
2018-09-26T13:07:27.418Z,19.70
2018-09-26T13:10:01.537Z,19.70
2018-09-26T13:12:35.703Z,19.20
2018-09-26T13:15:09.907Z,19.20
2018-09-26T13:17:44.778Z,19.10
2018-09-26T13:20:18.872Z,18.70
2018-09-26T13:22:52.972Z,18.70
2018-09-26T13:25:27.067Z,18.90
2018-09-26T13:28:01.219Z,19.30
2018-09-26T13:30:35.245Z,19.60
2018-09-26T13:33:09.321Z,19.60
2018-09-26T13:35:43.331Z,19.70
2018-09-26T13:38:17.509Z,19.70
2018-09-26T13:40:51.614Z,20.00
2018-09-26T13:43:25.739Z,20.10
2018-09-26T13:45:59.719Z,19.60
2018-09-26T13:48:33.696Z,19.70
2018-09-26T13:51:07.709Z,19.90
2018-09-26T13:53:41.822Z,19.80
2018-09-26T13:56:15.969Z,20.30
2018-09-26T13:58:49.994Z,20.70
2018-09-26T14:01:24.140Z,20.80
2018-09-26T14:03:58.171Z,20.50
2018-09-26T14:06:32.151Z,19.90
2018-09-26T14:09:06.259Z,19.80
2018-09-26T14:11:40.531Z,19.70
2018-09-26T14:14:14.683Z,19.70
2018-09-26T14:16:51.838Z,19.90
2018-09-26T14:19:28.882Z,19.80
2018-09-26T14:22:03.839Z,20.00
2018-09-26T14:24:37.993Z,20.00
2018-09-26T14:27:12.206Z,20.00
2018-09-26T14:29:47.445Z,19.90
2018-09-26T14:32:21.733Z,19.80
2018-09-26T14:35:03.628Z,19.60
2018-09-26T14:37:37.688Z,19.60
2018-09-26T14:40:11.855Z,19.60
2018-09-26T14:42:45.914Z,19.60
2018-09-26T14:45:20.130Z,20.20
2018-09-26T14:47:54.245Z,19.90
2018-09-26T14:50:28.632Z,19.70
2018-09-26T14:53:02.589Z,20.00
2018-09-26T14:55:36.736Z,20.00
2018-09-26T14:58:10.989Z,20.20
2018-09-26T15:00:45.067Z,20.20
2018-09-26T15:03:19.846Z,20.70
2018-09-26T15:05:55.010Z,20.90
2018-09-26T15:08:28.952Z,20.90
2018-09-26T15:11:03.053Z,20.60
2018-09-26T15:13:37.201Z,20.10
2018-09-26T15:16:11.312Z,19.90
2018-09-26T15:18:45.335Z,20.10
2018-09-26T15:21:19.470Z,20.10
2018-09-26T15:23:53.542Z,20.00
2018-09-26T15:26:27.665Z,19.80
2018-09-26T15:29:01.654Z,19.80
2018-09-26T15:31:35.698Z,19.80
2018-09-26T15:34:09.853Z,19.50
2018-09-26T15:36:44.020Z,19.30
2018-09-26T15:39:18.124Z,19.20
2018-09-26T15:41:52.226Z,19.40
2018-09-26T15:44:26.474Z,19.50
2018-09-26T15:47:00.611Z,19.70
2018-09-26T15:49:34.764Z,19.50
2018-09-26T15:52:08.943Z,19.40
2018-09-26T15:54:43.137Z,19.40
2018-09-26T15:57:17.311Z,19.20
2018-09-26T15:59:51.470Z,19.50
2018-09-26T16:02:26.432Z,19.30
2018-09-26T16:05:00.491Z,19.20
2018-09-26T16:07:34.488Z,19.00
2018-09-26T16:10:12.252Z,19.00
2018-09-26T16:12:46.230Z,19.00
2018-09-26T16:15:20.461Z,19.10
2018-09-26T16:17:55.236Z,19.50
2018-09-26T16:20:31.317Z,19.90
2018-09-26T16:23:06.398Z,20.60
2018-09-26T16:25:41.074Z,20.60
2018-09-26T16:28:15.163Z,20.50
2018-09-26T16:30:50.030Z,21.00
2018-09-26T16:33:24.081Z,21.00
2018-09-26T16:35:58.083Z,21.60
2018-09-26T16:38:32.778Z,23.60
2018-09-26T16:41:06.886Z,23.60
2018-09-26T16:43:41.725Z,23.50
2018-09-26T16:46:15.845Z,23.40
2018-09-26T16:48:50.681Z,22.10
2018-09-26T16:51:24.760Z,22.10
2018-09-26T16:53:58.878Z,21.40
2018-09-26T16:56:33.703Z,19.30
2018-09-26T16:59:07.824Z,19.30
2018-09-26T17:01:41.938Z,19.10
2018-09-26T17:04:15.857Z,18.50
2018-09-26T17:06:49.873Z,17.80
2018-09-26T17:09:23.972Z,17.40
2018-09-26T17:11:57.988Z,17.10
2018-09-26T17:14:32.022Z,16.80
2018-09-26T17:17:06.186Z,16.40
2018-09-26T17:19:40.464Z,16.60
2018-09-26T17:22:14.766Z,16.90
2018-09-26T17:24:48.665Z,16.80
2018-09-26T17:27:23.449Z,16.50
2018-09-26T17:29:57.498Z,16.40
2018-09-26T17:32:31.509Z,16.60
2018-09-26T17:35:05.477Z,16.40
2018-09-26T17:37:39.622Z,16.20
2018-09-26T17:40:13.787Z,16.30
2018-09-26T17:42:47.862Z,15.80
2018-09-26T17:45:21.949Z,15.60
2018-09-26T17:47:56.061Z,15.70
2018-09-26T17:50:30.170Z,15.90
2018-09-26T17:53:04.253Z,15.90
2018-09-26T17:55:38.302Z,15.80
2018-09-26T17:58:12.371Z,15.80
2018-09-26T18:00:46.435Z,15.80
2018-09-26T18:06:19.770Z,15.70
2018-09-26T18:08:53.729Z,15.70
2018-09-26T18:11:29.033Z,15.50
2018-09-26T18:14:03.103Z,15.40
2018-09-26T18:16:37.750Z,15.40
2018-09-26T18:19:12.102Z,15.40
2018-09-26T18:21:46.110Z,15.30
2018-09-26T18:24:20.249Z,15.30
2018-09-26T18:26:54.331Z,15.30
2018-09-26T18:29:28.434Z,15.30
2018-09-26T18:32:03.226Z,15.00
2018-09-26T18:34:38.016Z,15.00
2018-09-26T18:37:12.110Z,15.00
2018-09-26T18:39:46.031Z,15.00
2018-09-26T18:42:20.052Z,15.00
2018-09-26T18:44:54.173Z,14.90
2018-09-26T18:47:28.870Z,14.80
2018-09-26T18:50:02.906Z,14.80
2018-09-26T18:52:36.994Z,14.80
2018-09-26T18:55:11.085Z,14.70
2018-09-26T18:57:45.181Z,14.60
2018-09-26T19:00:19.258Z,14.60
2018-09-26T19:02:53.338Z,14.50
2018-09-26T19:05:27.361Z,14.50
2018-09-26T19:08:01.514Z,14.50
2018-09-26T19:10:36.570Z,14.50
2018-09-26T19:13:13.042Z,14.40
2018-09-26T19:15:46.990Z,14.40
2018-09-26T19:18:21.012Z,14.30
2018-09-26T19:20:55.128Z,14.40
2018-09-26T19:23:29.086Z,14.30
2018-09-26T19:26:03.162Z,14.20
2018-09-26T19:28:41.190Z,14.20
2018-09-26T19:31:15.216Z,14.10
2018-09-26T19:33:49.370Z,14.00
2018-09-26T19:36:24.225Z,14.00
2018-09-26T19:38:59.771Z,14.00
2018-09-26T19:41:33.841Z,14.00
2018-09-26T19:47:05.466Z,13.90
2018-09-26T19:49:40.886Z,13.90
2018-09-26T19:52:15.938Z,13.90
2018-09-26T19:54:49.936Z,13.90
2018-09-26T19:57:23.944Z,13.80
2018-09-26T19:59:57.997Z,13.80
2018-09-26T20:02:32.029Z,13.80
2018-09-26T20:05:06.065Z,13.70
2018-09-26T20:07:40.114Z,13.60
2018-09-26T20:10:14.230Z,13.50
2018-09-26T20:12:48.271Z,13.50
2018-09-26T20:15:22.403Z,13.50
2018-09-26T20:17:56.498Z,13.40
2018-09-26T20:20:30.685Z,13.40
2018-09-26T20:23:04.729Z,13.30
2018-09-26T20:25:38.735Z,13.30
2018-09-26T20:28:13.570Z,13.20
2018-09-26T20:30:47.546Z,13.20
2018-09-26T20:33:21.607Z,13.20
2018-09-26T20:35:55.705Z,13.10
2018-09-26T20:38:29.750Z,13.00
2018-09-26T20:41:04.546Z,12.90
2018-09-26T20:43:38.420Z,12.90
2018-09-26T20:46:12.265Z,12.90
2018-09-26T20:48:46.990Z,12.90
2018-09-26T20:51:20.869Z,12.90
2018-09-26T20:53:55.629Z,12.80
2018-09-26T20:56:30.364Z,12.80
2018-09-26T20:59:05.217Z,12.80
2018-09-26T21:01:39.333Z,12.70
2018-09-26T21:04:13.414Z,12.70
2018-09-26T21:06:47.466Z,12.70
2018-09-26T21:09:21.532Z,12.70
2018-09-26T21:11:55.577Z,12.60
2018-09-26T21:14:31.160Z,12.60
2018-09-26T21:17:05.217Z,12.50
2018-09-26T21:19:39.228Z,12.50
2018-09-26T21:22:13.346Z,12.40
2018-09-26T21:24:47.477Z,12.30
2018-09-26T21:27:21.574Z,12.30
2018-09-26T21:29:56.386Z,12.40
2018-09-26T21:32:31.114Z,12.30
2018-09-26T21:35:05.278Z,12.30
2018-09-26T21:37:39.340Z,12.30
2018-09-26T21:40:14.177Z,12.20
2018-09-26T21:42:48.119Z,12.20
2018-09-26T21:45:23.184Z,12.30
2018-09-26T21:47:57.137Z,12.20
2018-09-26T21:50:31.239Z,12.20
2018-09-26T21:53:05.353Z,12.20
2018-09-26T21:55:39.437Z,12.10
2018-09-26T21:58:13.294Z,12.20
2018-09-26T22:00:48.144Z,12.10
2018-09-26T22:03:22.271Z,12.10
2018-09-26T22:05:56.437Z,12.10
2018-09-26T22:08:30.601Z,12.00
2018-09-26T22:11:04.776Z,11.90
2018-09-26T22:13:38.846Z,11.90
2018-09-26T22:16:12.870Z,11.90
2018-09-26T22:18:46.834Z,11.90
2018-09-26T22:21:21.773Z,11.80
2018-09-26T22:23:55.871Z,11.80
2018-09-26T22:26:30.034Z,11.80
2018-09-26T22:29:04.118Z,11.80
2018-09-26T22:31:39.066Z,11.70
2018-09-26T22:34:13.155Z,11.60
2018-09-26T22:36:47.059Z,11.60
2018-09-26T22:39:21.055Z,11.60
2018-09-26T22:41:55.064Z,11.60
2018-09-26T22:44:29.222Z,11.60
2018-09-26T22:47:03.301Z,11.50
2018-09-26T22:49:37.365Z,11.50
2018-09-26T22:52:11.478Z,11.50
2018-09-26T22:54:45.449Z,11.50
2018-09-26T22:57:19.551Z,11.40
2018-09-26T22:59:53.594Z,11.40
2018-09-26T23:02:27.660Z,11.20
2018-09-26T23:05:01.727Z,11.20
2018-09-26T23:07:35.815Z,11.20
2018-09-26T23:10:09.904Z,11.20
2018-09-26T23:12:43.985Z,11.20
2018-09-26T23:15:17.984Z,11.20
2018-09-26T23:17:51.920Z,11.20
2018-09-26T23:20:26.730Z,11.10
2018-09-26T23:23:01.426Z,11.10
2018-09-26T23:25:35.514Z,11.10
2018-09-26T23:28:10.079Z,11.10
2018-09-26T23:30:44.029Z,11.10
2018-09-26T23:33:18.213Z,11.10
2018-09-26T23:35:52.162Z,11.00
2018-09-26T23:38:26.549Z,11.00
2018-09-26T23:41:00.692Z,10.90
2018-09-26T23:43:34.886Z,10.90
2018-09-26T23:46:09.051Z,10.90
2018-09-26T23:48:43.077Z,10.80
2018-09-26T23:51:17.094Z,10.80
2018-09-26T23:53:51.011Z,10.80
2018-09-26T23:56:25.131Z,10.80
2018-09-26T23:58:59.329Z,10.70
